Salt Lake City, Utah
Traffic Map
Current Weather Conditions
Salt Lake City, Utah
Broken Clouds
Broken Clouds
60°
Feels Like: 60°
Wind Chill: 60° Ceiling: 10000
Heat Index: 60° Visibility: 10mi
Dew Point: 40° Wind: 6mph
Humidity: 47% Direction: 300° (WNW)
Pressure: 30.03in Gusts: 0mph
Raw Report DataKSLC 251554Z 30005KT 10SM FEW065 SCT080 BKN100 16/04 A3003 RMK AO2 SLP136 TCU DSNT NW T01560044
Traffic Incident Summary
Active as of:
Severity:
Category:
InformationThere was an issue retrieving the traffic information for this location. Please try a different location or try again shortly.
Advertisements
Track Severe Weather on mobile